createdAt,value
2022-09-13T00:12:51.888Z,16.0
2022-09-13T00:26:51.902Z,15.9
2022-09-13T00:40:51.893Z,15.6
2022-09-13T00:54:51.900Z,15.5
2022-09-13T01:08:51.911Z,15.4
2022-09-13T01:22:52.097Z,15.3
2022-09-13T01:36:52.104Z,15.4
2022-09-13T01:50:52.083Z,15.6
2022-09-13T02:04:52.082Z,15.4
2022-09-13T02:18:52.096Z,15.2
2022-09-13T02:32:52.101Z,15.2
2022-09-13T02:46:52.101Z,15.1
2022-09-13T03:00:52.144Z,15.0
2022-09-13T03:14:52.104Z,15.1
2022-09-13T03:28:52.131Z,15.0
2022-09-13T03:42:52.093Z,15.3
2022-09-13T03:56:52.103Z,17.3
2022-09-13T04:10:52.111Z,17.1
2022-09-13T04:24:52.151Z,16.9
2022-09-13T04:38:52.136Z,16.3
2022-09-13T04:53:52.179Z,15.8
2022-09-13T05:08:52.162Z,15.5
2022-09-13T05:24:52.166Z,15.6
2022-09-13T05:40:10.505Z,15.4
2022-09-13T05:54:52.183Z,15.7
2022-09-13T06:09:52.172Z,16.1
2022-09-13T06:24:52.202Z,16.5
2022-09-13T06:39:52.271Z,16.8
2022-09-13T06:54:52.238Z,17.8
2022-09-13T07:09:52.220Z,21.6
2022-09-13T07:24:52.249Z,25.3
2022-09-13T07:39:52.251Z,26.2
2022-09-13T07:54:52.231Z,25.7
2022-09-13T08:09:52.247Z,26.1
2022-09-13T08:24:52.286Z,26.3
2022-09-13T08:39:52.339Z,27.0
2022-09-13T08:54:56.186Z,26.7
2022-09-13T09:09:52.302Z,26.8
2022-09-13T09:24:52.319Z,27.2
2022-09-13T09:39:52.317Z,27.2
2022-09-13T09:55:52.448Z,27.5
2022-09-13T10:10:52.442Z,27.4
2022-09-13T10:25:52.438Z,27.3
2022-09-13T10:40:52.456Z,27.6
2022-09-13T10:55:52.455Z,27.8
2022-09-13T11:10:52.482Z,28.2
2022-09-13T11:25:52.481Z,27.6
2022-09-13T11:40:52.467Z,28.3
2022-09-13T11:55:52.472Z,28.7
2022-09-13T12:10:52.488Z,29.4
2022-09-13T12:26:52.480Z,30.2
2022-09-13T12:41:52.516Z,30.0
2022-09-13T12:56:56.331Z,29.2
2022-09-13T13:11:52.509Z,30.0
2022-09-13T13:26:52.522Z,30.5
2022-09-13T13:41:52.550Z,31.1
2022-09-13T13:56:52.530Z,31.5
2022-09-13T14:11:52.547Z,31.8
2022-09-13T14:27:52.715Z,29.0
2022-09-13T14:42:52.818Z,29.8
2022-09-13T14:57:52.729Z,29.4
2022-09-13T15:12:52.867Z,28.7
2022-09-13T15:27:52.847Z,28.1
2022-09-13T15:43:52.878Z,27.6
2022-09-13T15:58:52.862Z,28.1
2022-09-13T16:13:52.882Z,28.6
2022-09-13T16:28:52.873Z,26.9
2022-09-13T16:43:52.869Z,25.4
2022-09-13T16:58:52.872Z,24.5
2022-09-13T17:13:52.898Z,23.3
2022-09-13T17:28:52.897Z,21.8
2022-09-13T17:43:52.915Z,21.5
2022-09-13T17:58:52.867Z,21.3
2022-09-13T18:13:52.875Z,20.7
2022-09-13T18:27:52.851Z,20.4
2022-09-13T18:41:52.905Z,20.1
2022-09-13T18:55:52.903Z,19.8
2022-09-13T19:09:52.910Z,19.6
2022-09-13T19:23:58.717Z,19.4
2022-09-13T19:37:52.923Z,19.4
2022-09-13T19:51:52.991Z,19.8
2022-09-13T20:05:52.931Z,20.0
2022-09-13T20:19:52.950Z,19.9
2022-09-13T20:33:52.986Z,20.0
2022-09-13T20:47:53.011Z,19.7
2022-09-13T21:01:53.081Z,19.4
2022-09-13T21:15:53.169Z,19.6
2022-09-13T21:29:53.157Z,20.3
2022-09-13T21:43:53.168Z,20.1
2022-09-13T21:57:53.218Z,19.8
2022-09-13T22:11:53.177Z,19.2
2022-09-13T22:25:53.194Z,19.1
2022-09-13T22:52:53.204Z,19.6
2022-09-13T23:06:53.229Z,19.7
2022-09-13T23:20:53.209Z,20.0
2022-09-13T23:34:53.232Z,19.9
2022-09-13T23:48:53.245Z,19.9
